sensor_id;sensor_type;location;lat;lon;timestamp;P1;durP1;ratioP1;P2;durP2;ratioP2
33553;SDS011;19885;42.208;24.952;2022-09-09T00:00:17;8.40;;;3.07;;
33553;SDS011;19885;42.208;24.952;2022-09-09T00:05:54;2.80;;;2.47;;
33553;SDS011;19885;42.208;24.952;2022-09-09T00:11:36;4.03;;;2.77;;
33553;SDS011;19885;42.208;24.952;2022-09-09T00:14:30;3.83;;;2.70;;
33553;SDS011;19885;42.208;24.952;2022-09-09T00:16:57;4.90;;;2.70;;
33553;SDS011;19885;42.208;24.952;2022-09-09T00:19:33;5.63;;;2.40;;
33553;SDS011;19885;42.208;24.952;2022-09-09T00:24:55;4.20;;;2.30;;
33553;SDS011;19885;42.208;24.952;2022-09-09T00:27:31;3.63;;;2.27;;
33553;SDS011;19885;42.208;24.952;2022-09-09T00:30:16;3.80;;;1.93;;
33553;SDS011;19885;42.208;24.952;2022-09-09T00:32:47;8.13;;;2.20;;
33553;SDS011;19885;42.208;24.952;2022-09-09T00:37:52;2.53;;;1.97;;
33553;SDS011;19885;42.208;24.952;2022-09-09T00:40:37;4.00;;;2.47;;
33553;SDS011;19885;42.208;24.952;2022-09-09T00:43:29;3.37;;;2.53;;
33553;SDS011;19885;42.208;24.952;2022-09-09T00:46:10;3.07;;;2.27;;
33553;SDS011;19885;42.208;24.952;2022-09-09T00:59:47;5.23;;;2.70;;
33553;SDS011;19885;42.208;24.952;2022-09-09T01:04:53;5.10;;;2.70;;
33553;SDS011;19885;42.208;24.952;2022-09-09T01:07:19;3.70;;;2.73;;
33553;SDS011;19885;42.208;24.952;2022-09-09T01:09:50;4.83;;;2.63;;
33553;SDS011;19885;42.208;24.952;2022-09-09T01:15:26;3.50;;;2.67;;
33553;SDS011;19885;42.208;24.952;2022-09-09T01:17:58;5.90;;;2.57;;
33553;SDS011;19885;42.208;24.952;2022-09-09T01:28:22;2.77;;;2.50;;
33553;SDS011;19885;42.208;24.952;2022-09-09T01:30:51;3.63;;;2.53;;
33553;SDS011;19885;42.208;24.952;2022-09-09T01:33:18;5.03;;;2.67;;
33553;SDS011;19885;42.208;24.952;2022-09-09T01:36:04;5.53;;;2.57;;
33553;SDS011;19885;42.208;24.952;2022-09-09T01:38:34;4.57;;;3.10;;
33553;SDS011;19885;42.208;24.952;2022-09-09T01:41:01;4.27;;;2.73;;
33553;SDS011;19885;42.208;24.952;2022-09-09T01:43:27;6.33;;;3.23;;
33553;SDS011;19885;42.208;24.952;2022-09-09T01:45:54;5.87;;;2.57;;
33553;SDS011;19885;42.208;24.952;2022-09-09T01:48:23;3.40;;;2.80;;
33553;SDS011;19885;42.208;24.952;2022-09-09T01:50:50;3.67;;;2.63;;
33553;SDS011;19885;42.208;24.952;2022-09-09T01:53:17;8.40;;;2.47;;
33553;SDS011;19885;42.208;24.952;2022-09-09T01:55:47;5.27;;;2.80;;
33553;SDS011;19885;42.208;24.952;2022-09-09T01:58:37;4.87;;;2.90;;
33553;SDS011;19885;42.208;24.952;2022-09-09T02:03:56;4.03;;;2.27;;
33553;SDS011;19885;42.208;24.952;2022-09-09T02:06:27;9.10;;;3.27;;
33553;SDS011;19885;42.208;24.952;2022-09-09T02:09:07;3.63;;;2.13;;
33553;SDS011;19885;42.208;24.952;2022-09-09T02:11:37;5.73;;;2.53;;
33553;SDS011;19885;42.208;24.952;2022-09-09T02:14:08;5.23;;;2.83;;
33553;SDS011;19885;42.208;24.952;2022-09-09T02:16:38;3.93;;;2.50;;
33553;SDS011;19885;42.208;24.952;2022-09-09T02:19:22;7.50;;;3.10;;
33553;SDS011;19885;42.208;24.952;2022-09-09T02:21:55;8.03;;;3.87;;
33553;SDS011;19885;42.208;24.952;2022-09-09T02:24:23;5.67;;;4.07;;
33553;SDS011;19885;42.208;24.952;2022-09-09T02:26:49;4.23;;;3.33;;
33553;SDS011;19885;42.208;24.952;2022-09-09T02:29:19;8.03;;;3.60;;
33553;SDS011;19885;42.208;24.952;2022-09-09T02:31:50;9.17;;;3.67;;
33553;SDS011;19885;42.208;24.952;2022-09-09T02:34:20;8.00;;;3.60;;
33553;SDS011;19885;42.208;24.952;2022-09-09T02:36:49;6.87;;;2.67;;
33553;SDS011;19885;42.208;24.952;2022-09-09T02:39:17;11.93;;;4.30;;
33553;SDS011;19885;42.208;24.952;2022-09-09T02:41:43;5.80;;;3.10;;
33553;SDS011;19885;42.208;24.952;2022-09-09T02:44:12;7.77;;;3.90;;
33553;SDS011;19885;42.208;24.952;2022-09-09T02:52:45;4.17;;;2.93;;
33553;SDS011;19885;42.208;24.952;2022-09-09T02:55:23;4.80;;;2.83;;
33553;SDS011;19885;42.208;24.952;2022-09-09T02:57:57;4.83;;;2.27;;
33553;SDS011;19885;42.208;24.952;2022-09-09T03:00:27;6.70;;;3.00;;
33553;SDS011;19885;42.208;24.952;2022-09-09T03:02:53;3.43;;;2.53;;
33553;SDS011;19885;42.208;24.952;2022-09-09T03:05:20;3.13;;;2.20;;
33553;SDS011;19885;42.208;24.952;2022-09-09T03:07:46;4.93;;;3.37;;
33553;SDS011;19885;42.208;24.952;2022-09-09T03:10:12;5.77;;;3.20;;
33553;SDS011;19885;42.208;24.952;2022-09-09T03:12:38;6.00;;;2.97;;
33553;SDS011;19885;42.208;24.952;2022-09-09T03:15:04;3.40;;;2.07;;
33553;SDS011;19885;42.208;24.952;2022-09-09T03:17:31;8.17;;;2.37;;
33553;SDS011;19885;42.208;24.952;2022-09-09T03:19:56;9.97;;;3.07;;
33553;SDS011;19885;42.208;24.952;2022-09-09T03:22:24;4.00;;;3.00;;
33553;SDS011;19885;42.208;24.952;2022-09-09T03:24:50;6.50;;;2.80;;
33553;SDS011;19885;42.208;24.952;2022-09-09T03:27:17;3.57;;;2.90;;
33553;SDS011;19885;42.208;24.952;2022-09-09T03:29:44;7.30;;;3.10;;
33553;SDS011;19885;42.208;24.952;2022-09-09T03:32:10;3.57;;;2.57;;
33553;SDS011;19885;42.208;24.952;2022-09-09T03:34:37;6.67;;;3.33;;
33553;SDS011;19885;42.208;24.952;2022-09-09T03:37:05;5.73;;;3.03;;
33553;SDS011;19885;42.208;24.952;2022-09-09T03:39:34;5.17;;;3.00;;
33553;SDS011;19885;42.208;24.952;2022-09-09T03:41:59;9.63;;;2.90;;
33553;SDS011;19885;42.208;24.952;2022-09-09T03:44:29;7.03;;;3.13;;
33553;SDS011;19885;42.208;24.952;2022-09-09T03:46:55;10.00;;;3.10;;
33553;SDS011;19885;42.208;24.952;2022-09-09T03:49:21;6.43;;;3.23;;
33553;SDS011;19885;42.208;24.952;2022-09-09T03:51:47;4.63;;;2.83;;
33553;SDS011;19885;42.208;24.952;2022-09-09T03:54:13;4.60;;;2.70;;
33553;SDS011;19885;42.208;24.952;2022-09-09T03:56:38;6.70;;;2.77;;
33553;SDS011;19885;42.208;24.952;2022-09-09T03:59:06;5.73;;;2.97;;
33553;SDS011;19885;42.208;24.952;2022-09-09T04:01:33;5.70;;;3.60;;
33553;SDS011;19885;42.208;24.952;2022-09-09T04:03:59;6.57;;;3.67;;
33553;SDS011;19885;42.208;24.952;2022-09-09T04:06:26;4.93;;;2.70;;
33553;SDS011;19885;42.208;24.952;2022-09-09T04:08:51;4.80;;;2.93;;
33553;SDS011;19885;42.208;24.952;2022-09-09T04:11:17;5.27;;;2.97;;
33553;SDS011;19885;42.208;24.952;2022-09-09T04:13:43;5.97;;;3.13;;
33553;SDS011;19885;42.208;24.952;2022-09-09T04:16:10;3.30;;;3.00;;
33553;SDS011;19885;42.208;24.952;2022-09-09T04:18:38;6.73;;;3.47;;
33553;SDS011;19885;42.208;24.952;2022-09-09T04:21:06;3.03;;;2.70;;
33553;SDS011;19885;42.208;24.952;2022-09-09T04:23:33;5.90;;;2.50;;
33553;SDS011;19885;42.208;24.952;2022-09-09T04:26:00;18.53;;;5.00;;
33553;SDS011;19885;42.208;24.952;2022-09-09T04:28:28;11.60;;;4.13;;
33553;SDS011;19885;42.208;24.952;2022-09-09T04:30:56;17.57;;;4.63;;
33553;SDS011;19885;42.208;24.952;2022-09-09T04:33:23;16.27;;;5.13;;
33553;SDS011;19885;42.208;24.952;2022-09-09T04:35:52;5.90;;;2.90;;
33553;SDS011;19885;42.208;24.952;2022-09-09T04:38:20;10.60;;;3.00;;
33553;SDS011;19885;42.208;24.952;2022-09-09T04:40:48;3.03;;;2.40;;
33553;SDS011;19885;42.208;24.952;2022-09-09T04:43:14;8.00;;;2.63;;
33553;SDS011;19885;42.208;24.952;2022-09-09T04:45:41;7.30;;;2.50;;
33553;SDS011;19885;42.208;24.952;2022-09-09T04:48:08;5.23;;;2.80;;
33553;SDS011;19885;42.208;24.952;2022-09-09T04:50:34;5.37;;;2.20;;
33553;SDS011;19885;42.208;24.952;2022-09-09T04:53:01;5.97;;;2.87;;
33553;SDS011;19885;42.208;24.952;2022-09-09T04:55:27;9.40;;;3.00;;
33553;SDS011;19885;42.208;24.952;2022-09-09T04:57:52;3.07;;;2.30;;
33553;SDS011;19885;42.208;24.952;2022-09-09T05:00:18;4.87;;;2.83;;
33553;SDS011;19885;42.208;24.952;2022-09-09T05:02:44;4.13;;;3.07;;
33553;SDS011;19885;42.208;24.952;2022-09-09T05:05:10;5.57;;;3.07;;
33553;SDS011;19885;42.208;24.952;2022-09-09T05:07:36;6.03;;;2.87;;
33553;SDS011;19885;42.208;24.952;2022-09-09T05:10:02;10.57;;;2.90;;
33553;SDS011;19885;42.208;24.952;2022-09-09T05:12:31;4.97;;;2.83;;
33553;SDS011;19885;42.208;24.952;2022-09-09T05:14:57;4.83;;;3.17;;
33553;SDS011;19885;42.208;24.952;2022-09-09T05:17:23;3.17;;;2.33;;
33553;SDS011;19885;42.208;24.952;2022-09-09T05:19:48;5.57;;;2.80;;
33553;SDS011;19885;42.208;24.952;2022-09-09T05:22:18;14.33;;;2.97;;
33553;SDS011;19885;42.208;24.952;2022-09-09T05:24:48;6.03;;;3.13;;
33553;SDS011;19885;42.208;24.952;2022-09-09T05:27:16;4.63;;;2.50;;
33553;SDS011;19885;42.208;24.952;2022-09-09T05:29:44;6.80;;;2.87;;
33553;SDS011;19885;42.208;24.952;2022-09-09T05:32:11;9.73;;;2.73;;
33553;SDS011;19885;42.208;24.952;2022-09-09T05:34:44;4.23;;;2.80;;
33553;SDS011;19885;42.208;24.952;2022-09-09T05:37:12;11.47;;;3.70;;
33553;SDS011;19885;42.208;24.952;2022-09-09T05:39:41;2.60;;;1.70;;
33553;SDS011;19885;42.208;24.952;2022-09-09T05:42:07;3.27;;;1.70;;
33553;SDS011;19885;42.208;24.952;2022-09-09T05:44:33;2.50;;;1.87;;
33553;SDS011;19885;42.208;24.952;2022-09-09T05:46:59;3.93;;;2.03;;
33553;SDS011;19885;42.208;24.952;2022-09-09T05:49:25;4.17;;;2.17;;
33553;SDS011;19885;42.208;24.952;2022-09-09T05:51:51;3.53;;;1.90;;
33553;SDS011;19885;42.208;24.952;2022-09-09T05:54:17;10.23;;;2.47;;
33553;SDS011;19885;42.208;24.952;2022-09-09T05:56:43;2.80;;;1.80;;
33553;SDS011;19885;42.208;24.952;2022-09-09T05:59:10;5.00;;;1.87;;
33553;SDS011;19885;42.208;24.952;2022-09-09T06:01:40;2.30;;;1.93;;
33553;SDS011;19885;42.208;24.952;2022-09-09T06:04:05;2.00;;;1.77;;
33553;SDS011;19885;42.208;24.952;2022-09-09T06:06:32;2.40;;;1.70;;
33553;SDS011;19885;42.208;24.952;2022-09-09T06:09:02;2.20;;;1.60;;
33553;SDS011;19885;42.208;24.952;2022-09-09T06:11:32;3.00;;;2.27;;
33553;SDS011;19885;42.208;24.952;2022-09-09T06:14:01;4.20;;;1.73;;
33553;SDS011;19885;42.208;24.952;2022-09-09T06:16:27;13.73;;;1.50;;
33553;SDS011;19885;42.208;24.952;2022-09-09T06:18:56;3.30;;;1.87;;
33553;SDS011;19885;42.208;24.952;2022-09-09T06:21:24;4.63;;;1.93;;
33553;SDS011;19885;42.208;24.952;2022-09-09T06:23:50;1.87;;;1.70;;
33553;SDS011;19885;42.208;24.952;2022-09-09T06:26:17;7.73;;;2.13;;
33553;SDS011;19885;42.208;24.952;2022-09-09T06:28:44;3.87;;;1.90;;
33553;SDS011;19885;42.208;24.952;2022-09-09T06:31:13;2.70;;;2.17;;
33553;SDS011;19885;42.208;24.952;2022-09-09T06:33:42;5.90;;;1.77;;
33553;SDS011;19885;42.208;24.952;2022-09-09T06:36:11;3.83;;;1.97;;
33553;SDS011;19885;42.208;24.952;2022-09-09T06:38:38;8.90;;;4.00;;
33553;SDS011;19885;42.208;24.952;2022-09-09T06:41:07;12.80;;;6.40;;
33553;SDS011;19885;42.208;24.952;2022-09-09T06:43:34;7.60;;;3.27;;
33553;SDS011;19885;42.208;24.952;2022-09-09T06:46:10;11.23;;;2.47;;
33553;SDS011;19885;42.208;24.952;2022-09-09T06:48:52;5.07;;;3.17;;
33553;SDS011;19885;42.208;24.952;2022-09-09T06:51:20;3.10;;;2.17;;
33553;SDS011;19885;42.208;24.952;2022-09-09T06:53:50;11.30;;;2.23;;
33553;SDS011;19885;42.208;24.952;2022-09-09T06:58:44;6.77;;;3.73;;
33553;SDS011;19885;42.208;24.952;2022-09-09T07:01:14;4.60;;;1.70;;
33553;SDS011;19885;42.208;24.952;2022-09-09T07:03:51;3.60;;;1.90;;
33553;SDS011;19885;42.208;24.952;2022-09-09T07:06:19;11.53;;;2.10;;
33553;SDS011;19885;42.208;24.952;2022-09-09T07:08:51;2.50;;;1.73;;
33553;SDS011;19885;42.208;24.952;2022-09-09T07:11:22;8.17;;;2.00;;
33553;SDS011;19885;42.208;24.952;2022-09-09T07:13:50;12.30;;;2.23;;
33553;SDS011;19885;42.208;24.952;2022-09-09T07:16:16;7.70;;;1.80;;
33553;SDS011;19885;42.208;24.952;2022-09-09T07:18:44;2.27;;;1.53;;
33553;SDS011;19885;42.208;24.952;2022-09-09T07:21:10;3.30;;;1.70;;
33553;SDS011;19885;42.208;24.952;2022-09-09T07:23:37;2.87;;;2.23;;
33553;SDS011;19885;42.208;24.952;2022-09-09T07:26:07;3.00;;;2.33;;
33553;SDS011;19885;42.208;24.952;2022-09-09T07:28:37;3.93;;;2.07;;
33553;SDS011;19885;42.208;24.952;2022-09-09T07:31:03;2.67;;;1.93;;
33553;SDS011;19885;42.208;24.952;2022-09-09T07:33:31;2.40;;;2.13;;
33553;SDS011;19885;42.208;24.952;2022-09-09T07:36:02;4.03;;;2.10;;
33553;SDS011;19885;42.208;24.952;2022-09-09T07:38:30;8.17;;;2.13;;
33553;SDS011;19885;42.208;24.952;2022-09-09T07:41:04;5.68;;;1.90;;
33553;SDS011;19885;42.208;24.952;2022-09-09T07:43:44;4.43;;;2.27;;
33553;SDS011;19885;42.208;24.952;2022-09-09T07:46:11;2.30;;;1.63;;
33553;SDS011;19885;42.208;24.952;2022-09-09T07:48:38;2.33;;;2.00;;
33553;SDS011;19885;42.208;24.952;2022-09-09T07:51:09;5.00;;;2.37;;
33553;SDS011;19885;42.208;24.952;2022-09-09T07:53:37;3.67;;;2.63;;
33553;SDS011;19885;42.208;24.952;2022-09-09T07:56:09;3.90;;;2.42;;
33553;SDS011;19885;42.208;24.952;2022-09-09T07:58:37;3.80;;;2.50;;
33553;SDS011;19885;42.208;24.952;2022-09-09T08:01:11;5.00;;;2.88;;
33553;SDS011;19885;42.208;24.952;2022-09-09T08:03:43;5.20;;;2.67;;
33553;SDS011;19885;42.208;24.952;2022-09-09T08:06:10;3.60;;;2.90;;
33553;SDS011;19885;42.208;24.952;2022-09-09T08:08:37;4.50;;;3.42;;
33553;SDS011;19885;42.208;24.952;2022-09-09T08:11:09;4.72;;;2.58;;
33553;SDS011;19885;42.208;24.952;2022-09-09T08:13:42;3.63;;;2.70;;
33553;SDS011;19885;42.208;24.952;2022-09-09T08:16:16;3.35;;;3.08;;
33553;SDS011;19885;42.208;24.952;2022-09-09T08:18:43;8.30;;;3.08;;
33553;SDS011;19885;42.208;24.952;2022-09-09T08:21:13;4.72;;;3.08;;
33553;SDS011;19885;42.208;24.952;2022-09-09T08:23:42;3.25;;;2.45;;
33553;SDS011;19885;42.208;24.952;2022-09-09T08:26:17;2.70;;;2.50;;
33553;SDS011;19885;42.208;24.952;2022-09-09T08:28:46;10.32;;;3.00;;
33553;SDS011;19885;42.208;24.952;2022-09-09T08:31:16;6.57;;;2.83;;
33553;SDS011;19885;42.208;24.952;2022-09-09T08:33:43;4.15;;;2.42;;
33553;SDS011;19885;42.208;24.952;2022-09-09T08:36:13;4.78;;;3.33;;
33553;SDS011;19885;42.208;24.952;2022-09-09T08:38:41;11.45;;;3.13;;
33553;SDS011;19885;42.208;24.952;2022-09-09T08:41:12;5.03;;;3.40;;
33553;SDS011;19885;42.208;24.952;2022-09-09T08:46:49;4.03;;;3.30;;
33553;SDS011;19885;42.208;24.952;2022-09-09T08:49:48;3.15;;;2.83;;
33553;SDS011;19885;42.208;24.952;2022-09-09T08:52:17;7.40;;;2.63;;
33553;SDS011;19885;42.208;24.952;2022-09-09T08:54:47;17.75;;;4.25;;
33553;SDS011;19885;42.208;24.952;2022-09-09T08:57:18;7.30;;;3.00;;
33553;SDS011;19885;42.208;24.952;2022-09-09T08:59:51;3.65;;;3.28;;
33553;SDS011;19885;42.208;24.952;2022-09-09T09:07:54;13.45;;;3.70;;
33553;SDS011;19885;42.208;24.952;2022-09-09T09:12:55;4.05;;;3.15;;
33553;SDS011;19885;42.208;24.952;2022-09-09T09:15:25;5.10;;;3.42;;
33553;SDS011;19885;42.208;24.952;2022-09-09T09:17:55;5.43;;;2.28;;
33553;SDS011;19885;42.208;24.952;2022-09-09T09:20:23;3.95;;;3.03;;
33553;SDS011;19885;42.208;24.952;2022-09-09T09:23:16;5.72;;;3.15;;
33553;SDS011;19885;42.208;24.952;2022-09-09T09:25:47;8.15;;;3.13;;
33553;SDS011;19885;42.208;24.952;2022-09-09T09:28:23;5.68;;;2.85;;
33553;SDS011;19885;42.208;24.952;2022-09-09T09:30:55;2.92;;;2.55;;
33553;SDS011;19885;42.208;24.952;2022-09-09T09:35:51;5.93;;;2.92;;
33553;SDS011;19885;42.208;24.952;2022-09-09T09:38:22;8.60;;;3.72;;
33553;SDS011;19885;42.208;24.952;2022-09-09T09:40:59;5.32;;;3.78;;
33553;SDS011;19885;42.208;24.952;2022-09-09T09:43:29;3.83;;;3.05;;
33553;SDS011;19885;42.208;24.952;2022-09-09T09:45:57;9.18;;;2.58;;
33553;SDS011;19885;42.208;24.952;2022-09-09T09:48:23;6.28;;;3.20;;
33553;SDS011;19885;42.208;24.952;2022-09-09T09:50:51;5.65;;;3.17;;
33553;SDS011;19885;42.208;24.952;2022-09-09T09:53:26;12.13;;;3.00;;
33553;SDS011;19885;42.208;24.952;2022-09-09T09:55:57;5.45;;;3.85;;
33553;SDS011;19885;42.208;24.952;2022-09-09T09:58:25;3.40;;;2.63;;
33553;SDS011;19885;42.208;24.952;2022-09-09T10:00:53;11.25;;;3.10;;
33553;SDS011;19885;42.208;24.952;2022-09-09T10:05:55;5.25;;;3.40;;
33553;SDS011;19885;42.208;24.952;2022-09-09T10:08:22;4.53;;;3.05;;
33553;SDS011;19885;42.208;24.952;2022-09-09T10:13:19;4.28;;;3.70;;
33553;SDS011;19885;42.208;24.952;2022-09-09T10:18:36;6.95;;;3.28;;
33553;SDS011;19885;42.208;24.952;2022-09-09T10:40:34;8.50;;;3.65;;
33553;SDS011;19885;42.208;24.952;2022-09-09T10:48:41;12.68;;;4.07;;
33553;SDS011;19885;42.208;24.952;2022-09-09T10:54:09;11.95;;;3.30;;
33553;SDS011;19885;42.208;24.952;2022-09-09T10:56:38;6.00;;;3.15;;
33553;SDS011;19885;42.208;24.952;2022-09-09T10:59:12;7.45;;;3.25;;
33553;SDS011;19885;42.208;24.952;2022-09-09T11:01:46;16.00;;;3.75;;
33553;SDS011;19885;42.208;24.952;2022-09-09T11:04:19;11.32;;;4.03;;
33553;SDS011;19885;42.208;24.952;2022-09-09T11:06:54;3.92;;;2.72;;
33553;SDS011;19885;42.208;24.952;2022-09-09T11:09:22;2.83;;;2.58;;
33553;SDS011;19885;42.208;24.952;2022-09-09T11:11:52;6.45;;;2.92;;
33553;SDS011;19885;42.208;24.952;2022-09-09T11:14:26;6.10;;;3.42;;
33553;SDS011;19885;42.208;24.952;2022-09-09T11:16:59;6.35;;;2.95;;
33553;SDS011;19885;42.208;24.952;2022-09-09T11:19:35;7.22;;;2.90;;
33553;SDS011;19885;42.208;24.952;2022-09-09T11:22:26;5.03;;;3.13;;
33553;SDS011;19885;42.208;24.952;2022-09-09T11:31:17;7.03;;;3.28;;
33553;SDS011;19885;42.208;24.952;2022-09-09T11:44:39;4.78;;;3.42;;
33553;SDS011;19885;42.208;24.952;2022-09-09T11:52:41;6.15;;;2.70;;
33553;SDS011;19885;42.208;24.952;2022-09-09T11:58:02;6.80;;;3.45;;
33553;SDS011;19885;42.208;24.952;2022-09-09T12:06:13;5.10;;;2.80;;
33553;SDS011;19885;42.208;24.952;2022-09-09T12:08:50;3.38;;;3.08;;
33553;SDS011;19885;42.208;24.952;2022-09-09T12:11:25;5.03;;;4.03;;
33553;SDS011;19885;42.208;24.952;2022-09-09T12:13:53;5.25;;;2.50;;
33553;SDS011;19885;42.208;24.952;2022-09-09T12:16:33;4.13;;;2.83;;
33553;SDS011;19885;42.208;24.952;2022-09-09T12:19:15;3.47;;;3.17;;
33553;SDS011;19885;42.208;24.952;2022-09-09T12:21:56;6.63;;;2.92;;
33553;SDS011;19885;42.208;24.952;2022-09-09T12:30:11;3.42;;;2.85;;
33553;SDS011;19885;42.208;24.952;2022-09-09T12:33:00;8.57;;;3.22;;
33553;SDS011;19885;42.208;24.952;2022-09-09T12:35:33;4.75;;;3.35;;
33553;SDS011;19885;42.208;24.952;2022-09-09T12:38:01;3.25;;;2.53;;
33553;SDS011;19885;42.208;24.952;2022-09-09T12:40:30;3.55;;;2.63;;
33553;SDS011;19885;42.208;24.952;2022-09-09T12:43:01;5.65;;;3.13;;
33553;SDS011;19885;42.208;24.952;2022-09-09T12:45:41;3.40;;;3.10;;
33553;SDS011;19885;42.208;24.952;2022-09-09T12:48:11;3.42;;;2.40;;
33553;SDS011;19885;42.208;24.952;2022-09-09T12:51:01;2.90;;;2.60;;
33553;SDS011;19885;42.208;24.952;2022-09-09T12:53:34;6.32;;;2.65;;
33553;SDS011;19885;42.208;24.952;2022-09-09T12:56:05;2.53;;;2.30;;
33553;SDS011;19885;42.208;24.952;2022-09-09T12:58:38;8.32;;;3.08;;
33553;SDS011;19885;42.208;24.952;2022-09-09T13:01:06;2.65;;;2.25;;
33553;SDS011;19885;42.208;24.952;2022-09-09T13:03:43;4.85;;;3.05;;
33553;SDS011;19885;42.208;24.952;2022-09-09T13:06:12;7.57;;;2.95;;
33553;SDS011;19885;42.208;24.952;2022-09-09T13:08:43;4.97;;;3.20;;
33553;SDS011;19885;42.208;24.952;2022-09-09T13:11:30;5.07;;;3.25;;
33553;SDS011;19885;42.208;24.952;2022-09-09T13:17:03;4.28;;;2.92;;
33553;SDS011;19885;42.208;24.952;2022-09-09T13:19:35;3.90;;;2.70;;
33553;SDS011;19885;42.208;24.952;2022-09-09T13:22:12;5.28;;;2.88;;
33553;SDS011;19885;42.208;24.952;2022-09-09T13:24:44;4.20;;;2.85;;
33553;SDS011;19885;42.208;24.952;2022-09-09T13:35:34;3.70;;;2.67;;
33553;SDS011;19885;42.208;24.952;2022-09-09T13:38:13;9.95;;;3.78;;
33553;SDS011;19885;42.208;24.952;2022-09-09T13:40:40;3.83;;;2.88;;
33553;SDS011;19885;42.208;24.952;2022-09-09T13:43:10;2.83;;;2.25;;
33553;SDS011;19885;42.208;24.952;2022-09-09T13:45:52;3.75;;;2.63;;
33553;SDS011;19885;42.208;24.952;2022-09-09T13:48:19;5.18;;;3.72;;
33553;SDS011;19885;42.208;24.952;2022-09-09T13:50:53;3.00;;;2.70;;
33553;SDS011;19885;42.208;24.952;2022-09-09T13:53:23;8.32;;;2.80;;
33553;SDS011;19885;42.208;24.952;2022-09-09T13:55:49;4.05;;;2.67;;
33553;SDS011;19885;42.208;24.952;2022-09-09T13:58:17;6.35;;;3.03;;
33553;SDS011;19885;42.208;24.952;2022-09-09T14:00:44;4.28;;;2.55;;
33553;SDS011;19885;42.208;24.952;2022-09-09T14:03:10;2.67;;;2.38;;
33553;SDS011;19885;42.208;24.952;2022-09-09T14:05:36;3.60;;;2.60;;
33553;SDS011;19885;42.208;24.952;2022-09-09T14:08:06;8.40;;;3.35;;
33553;SDS011;19885;42.208;24.952;2022-09-09T14:10:32;8.98;;;2.85;;
33553;SDS011;19885;42.208;24.952;2022-09-09T14:13:02;5.53;;;2.85;;
33553;SDS011;19885;42.208;24.952;2022-09-09T14:15:28;9.75;;;2.97;;
33553;SDS011;19885;42.208;24.952;2022-09-09T14:17:54;6.57;;;2.90;;
33553;SDS011;19885;42.208;24.952;2022-09-09T14:20:19;3.03;;;2.70;;
33553;SDS011;19885;42.208;24.952;2022-09-09T14:22:45;3.10;;;2.25;;
33553;SDS011;19885;42.208;24.952;2022-09-09T14:25:11;7.82;;;3.25;;
33553;SDS011;19885;42.208;24.952;2022-09-09T14:27:40;4.13;;;2.85;;
33553;SDS011;19885;42.208;24.952;2022-09-09T14:30:06;5.20;;;3.17;;
33553;SDS011;19885;42.208;24.952;2022-09-09T14:32:32;5.65;;;2.95;;
33553;SDS011;19885;42.208;24.952;2022-09-09T14:34:58;5.03;;;3.00;;
33553;SDS011;19885;42.208;24.952;2022-09-09T14:37:23;5.05;;;3.03;;
33553;SDS011;19885;42.208;24.952;2022-09-09T14:39:49;5.50;;;2.88;;
33553;SDS011;19885;42.208;24.952;2022-09-09T14:42:15;7.78;;;3.25;;
33553;SDS011;19885;42.208;24.952;2022-09-09T14:44:41;3.70;;;2.72;;
33553;SDS011;19885;42.208;24.952;2022-09-09T14:47:07;9.55;;;3.30;;
33553;SDS011;19885;42.208;24.952;2022-09-09T14:49:36;4.72;;;3.00;;
33553;SDS011;19885;42.208;24.952;2022-09-09T14:52:05;5.22;;;3.03;;
33553;SDS011;19885;42.208;24.952;2022-09-09T14:54:31;6.28;;;3.40;;
33553;SDS011;19885;42.208;24.952;2022-09-09T14:56:57;11.98;;;3.53;;
33553;SDS011;19885;42.208;24.952;2022-09-09T14:59:23;5.60;;;3.30;;
33553;SDS011;19885;42.208;24.952;2022-09-09T15:01:49;4.30;;;3.25;;
33553;SDS011;19885;42.208;24.952;2022-09-09T15:04:15;3.90;;;3.22;;
33553;SDS011;19885;42.208;24.952;2022-09-09T15:06:45;7.55;;;3.03;;
33553;SDS011;19885;42.208;24.952;2022-09-09T15:09:14;5.20;;;2.85;;
33553;SDS011;19885;42.208;24.952;2022-09-09T15:11:40;4.25;;;3.08;;
33553;SDS011;19885;42.208;24.952;2022-09-09T15:14:06;5.63;;;3.22;;
33553;SDS011;19885;42.208;24.952;2022-09-09T15:16:33;5.32;;;2.95;;
33553;SDS011;19885;42.208;24.952;2022-09-09T15:18:59;10.15;;;3.47;;
33553;SDS011;19885;42.208;24.952;2022-09-09T15:21:26;3.03;;;2.72;;
33553;SDS011;19885;42.208;24.952;2022-09-09T15:23:54;7.40;;;3.10;;
33553;SDS011;19885;42.208;24.952;2022-09-09T15:26:20;7.03;;;2.90;;
33553;SDS011;19885;42.208;24.952;2022-09-09T15:28:46;7.70;;;3.47;;
33553;SDS011;19885;42.208;24.952;2022-09-09T15:31:16;3.58;;;3.25;;
33553;SDS011;19885;42.208;24.952;2022-09-09T15:33:50;6.25;;;3.65;;
33553;SDS011;19885;42.208;24.952;2022-09-09T15:36:17;5.68;;;3.25;;
33553;SDS011;19885;42.208;24.952;2022-09-09T15:38:45;6.00;;;3.10;;
33553;SDS011;19885;42.208;24.952;2022-09-09T15:41:11;10.48;;;3.80;;
33553;SDS011;19885;42.208;24.952;2022-09-09T15:43:38;6.70;;;3.40;;
33553;SDS011;19885;42.208;24.952;2022-09-09T15:48:42;5.05;;;2.58;;
33553;SDS011;19885;42.208;24.952;2022-09-09T15:51:11;3.75;;;2.83;;
33553;SDS011;19885;42.208;24.952;2022-09-09T15:53:37;5.18;;;3.13;;
33553;SDS011;19885;42.208;24.952;2022-09-09T15:56:06;3.25;;;2.95;;
33553;SDS011;19885;42.208;24.952;2022-09-09T15:58:32;11.93;;;3.28;;
33553;SDS011;19885;42.208;24.952;2022-09-09T16:01:05;4.28;;;3.13;;
33553;SDS011;19885;42.208;24.952;2022-09-09T16:03:36;4.85;;;3.65;;
33553;SDS011;19885;42.208;24.952;2022-09-09T16:06:07;4.15;;;2.60;;
33553;SDS011;19885;42.208;24.952;2022-09-09T16:08:34;6.88;;;3.40;;
33553;SDS011;19885;42.208;24.952;2022-09-09T16:11:20;7.07;;;3.03;;
33553;SDS011;19885;42.208;24.952;2022-09-09T16:13:48;5.38;;;3.42;;
33553;SDS011;19885;42.208;24.952;2022-09-09T16:16:16;23.02;;;3.22;;
33553;SDS011;19885;42.208;24.952;2022-09-09T16:18:51;7.15;;;3.97;;
33553;SDS011;19885;42.208;24.952;2022-09-09T16:23:45;4.43;;;3.03;;
33553;SDS011;19885;42.208;24.952;2022-09-09T16:26:12;3.75;;;2.90;;
33553;SDS011;19885;42.208;24.952;2022-09-09T16:28:39;4.20;;;2.85;;
33553;SDS011;19885;42.208;24.952;2022-09-09T16:31:06;6.28;;;4.30;;
33553;SDS011;19885;42.208;24.952;2022-09-09T16:33:43;5.97;;;2.92;;
33553;SDS011;19885;42.208;24.952;2022-09-09T16:36:10;5.60;;;4.13;;
33553;SDS011;19885;42.208;24.952;2022-09-09T16:38:37;8.65;;;3.55;;
33553;SDS011;19885;42.208;24.952;2022-09-09T16:41:03;13.43;;;3.97;;
33553;SDS011;19885;42.208;24.952;2022-09-09T16:43:31;7.60;;;3.85;;
33553;SDS011;19885;42.208;24.952;2022-09-09T16:46:01;8.68;;;4.05;;
33553;SDS011;19885;42.208;24.952;2022-09-09T16:48:31;9.43;;;3.72;;
33553;SDS011;19885;42.208;24.952;2022-09-09T16:51:02;9.73;;;4.75;;
33553;SDS011;19885;42.208;24.952;2022-09-09T16:53:35;15.55;;;7.50;;
33553;SDS011;19885;42.208;24.952;2022-09-09T16:56:07;15.98;;;6.47;;
33553;SDS011;19885;42.208;24.952;2022-09-09T16:58:33;18.00;;;4.82;;
33553;SDS011;19885;42.208;24.952;2022-09-09T17:00:59;5.63;;;4.20;;
33553;SDS011;19885;42.208;24.952;2022-09-09T17:03:27;6.05;;;3.83;;
33553;SDS011;19885;42.208;24.952;2022-09-09T17:05:53;7.57;;;4.60;;
33553;SDS011;19885;42.208;24.952;2022-09-09T17:08:18;4.93;;;3.35;;
33553;SDS011;19885;42.208;24.952;2022-09-09T17:10:44;6.75;;;4.47;;
33553;SDS011;19885;42.208;24.952;2022-09-09T17:13:10;7.38;;;4.63;;
33553;SDS011;19885;42.208;24.952;2022-09-09T17:15:41;8.50;;;4.25;;
33553;SDS011;19885;42.208;24.952;2022-09-09T17:18:08;11.60;;;4.97;;